Terminal Aerodrome Forecast
Issued by NWS

Home | Current Version | Previous Version | Graphics & Text | Print | Product List | Glossary On
Versions: 1 2 3 4 5 6 7 8 9 10 11 12 13 14 15 16 17
000
FTUS43 KMPX 241739
TAFRNH
TAF
KRNH 241739Z 2418/2518 25005KT P6SM BKN110
     FM250100 28005KT P6SM OVC020
     FM250500 04006KT 4SM -SN OVC012
     FM251000 03012KT P6SM FEW012 OVC020
     FM251500 03009KT P6SM SCT025=

USA.gov is the U.S. government's official web portal to all federal, state and local government web resources and services.